Time;durP1;ratioP1;P1;durP2;ratioP2;P2;SDS_P1;SDS_P2;PMS_P1;PMS_P2;Temp;Humidity;BMP_temperature;BMP_pressure;BME280_temperature;BME280_humidity;BME280_pressure;Samples;Min_cycle;Max_cycle;Signal;HPM_P1;HPM_P2
2023/05/19 00:00:23;;;;;;;7.23;5.40;;;;;;;10.18;100.00;100019.75;5055519;28;20283;-79
2023/05/19 00:02:50;;;;;;;5.97;5.07;;;;;;;10.18;100.00;100018.94;5055791;28;20236;-78
2023/05/19 00:05:17;;;;;;;7.13;4.80;;;;;;;10.18;100.00;100009.03;5055285;28;20209;-79
2023/05/19 00:07:45;;;;;;;6.77;5.10;;;;;;;10.22;100.00;100020.19;5055490;28;20189;-79
2023/05/19 00:10:12;;;;;;;6.80;5.13;;;;;;;10.20;100.00;100016.88;5054363;28;20213;-79
2023/05/19 00:12:39;;;;;;;7.23;4.70;;;;;;;10.21;100.00;100018.53;5055626;28;20209;-79
2023/05/19 00:15:06;;;;;;;7.73;4.73;;;;;;;10.21;100.00;100010.50;5055350;28;20564;-79
2023/05/19 00:17:33;;;;;;;7.10;4.70;;;;;;;10.11;100.00;100005.53;5055231;28;20686;-79
2023/05/19 00:20:00;;;;;;;5.93;5.13;;;;;;;10.15;100.00;100015.66;5055351;28;20538;-79
2023/05/19 00:22:27;;;;;;;6.43;4.97;;;;;;;10.13;100.00;100016.84;5055190;28;20209;-79
2023/05/19 00:24:53;;;;;;;5.93;4.60;;;;;;;9.99;100.00;100018.69;5054094;28;20683;-79
2023/05/19 00:27:20;;;;;;;7.00;4.67;;;;;;;9.92;100.00;100015.22;5055330;28;20186;-78
2023/05/19 00:29:46;;;;;;;7.63;5.30;;;;;;;10.11;100.00;100016.25;5055342;28;20232;-78
2023/05/19 00:32:14;;;;;;;8.57;4.93;;;;;;;10.05;100.00;100015.22;5054920;28;20244;-79
2023/05/19 00:34:41;;;;;;;7.07;5.20;;;;;;;10.11;100.00;100011.72;5065781;28;20327;-79
2023/05/19 00:37:10;;;;;;;7.60;5.50;;;;;;;10.09;100.00;100011.09;5054061;28;20213;-79
2023/05/19 00:39:37;;;;;;;7.40;5.33;;;;;;;10.07;100.00;100007.81;5057611;28;20272;-79
2023/05/19 00:42:04;;;;;;;7.90;5.20;;;;;;;10.11;100.00;100008.22;5058687;28;20248;-78
2023/05/19 00:44:31;;;;;;;6.23;5.13;;;;;;;10.07;100.00;100010.47;5062177;28;20581;-79
2023/05/19 00:46:57;;;;;;;9.30;5.40;;;;;;;9.98;100.00;100017.06;5053544;28;20281;-79
2023/05/19 00:49:25;;;;;;;6.20;5.60;;;;;;;9.97;100.00;100014.59;5057584;28;20201;-80
2023/05/19 00:51:52;;;;;;;8.27;5.70;;;;;;;10.07;100.00;100009.66;5074026;28;21416;-80
2023/05/19 00:54:19;;;;;;;7.47;5.73;;;;;;;9.97;100.00;100009.25;5058846;28;20657;-79
2023/05/19 00:56:46;;;;;;;7.23;5.63;;;;;;;10.00;100.00;100003.47;5069778;28;20668;-79
2023/05/19 00:59:13;;;;;;;7.93;5.60;;;;;;;9.88;100.00;100000.59;5058490;28;20610;-79
2023/05/19 01:01:39;;;;;;;7.17;5.80;;;;;;;9.88;100.00;100005.13;5055086;28;20237;-80
2023/05/19 01:04:08;;;;;;;8.33;6.30;;;;;;;9.90;100.00;100000.38;5056718;28;20186;-80
2023/05/19 01:06:38;;;;;;;6.73;5.90;;;;;;;9.86;100.00;100010.69;5034011;28;20259;-80
2023/05/19 01:09:05;;;;;;;9.50;5.87;;;;;;;9.89;100.00;100004.09;5056743;28;20717;-80
2023/05/19 01:11:34;;;;;;;7.77;6.17;;;;;;;9.73;100.00;99999.97;5062400;28;20205;-79
2023/05/19 01:14:01;;;;;;;8.87;6.53;;;;;;;9.67;100.00;99995.44;5060758;28;20247;-80
2023/05/19 01:16:30;;;;;;;8.07;6.20;;;;;;;9.60;100.00;100003.47;5058296;28;20251;-78
2023/05/19 01:19:09;;;;;;;7.80;6.00;;;;;;;9.63;100.00;99999.53;5060784;28;20245;-79
2023/05/19 01:22:06;;;;;;;8.07;6.50;;;;;;;9.54;100.00;99990.91;5068751;28;20289;-80
2023/05/19 01:24:36;;;;;;;7.67;6.23;;;;;;;9.54;100.00;99993.56;5055938;28;20189;-79
2023/05/19 01:27:23;;;;;;;6.83;5.97;;;;;;;9.55;100.00;99987.22;5039259;28;20273;-80
2023/05/19 01:30:11;;;;;;;7.20;6.03;;;;;;;9.53;100.00;99983.06;5039875;28;20208;-79
2023/05/19 01:32:40;;;;;;;8.90;6.50;;;;;;;9.50;100.00;99989.66;5058746;28;20220;-80
2023/05/19 01:35:08;;;;;;;9.03;7.03;;;;;;;9.46;100.00;99990.28;5059511;28;20189;-79
2023/05/19 01:37:36;;;;;;;7.40;6.13;;;;;;;9.40;100.00;99983.88;5066731;28;20254;-79
2023/05/19 01:40:06;;;;;;;8.77;6.67;;;;;;;9.38;100.00;99993.16;5082011;28;20199;-81
2023/05/19 01:42:38;;;;;;;8.50;6.83;;;;;;;9.28;100.00;99982.84;5084167;28;20299;-81
2023/05/19 01:45:11;;;;;;;9.53;6.93;;;;;;;9.28;100.00;99993.53;5056609;28;20209;-82
2023/05/19 01:47:51;;;;;;;7.77;6.93;;;;;;;9.27;100.00;99989.22;5064675;28;20193;-82
2023/05/19 01:50:18;;;;;;;7.83;7.07;;;;;;;9.23;100.00;99985.31;5077778;28;20181;-81
2023/05/19 01:52:48;;;;;;;8.83;7.17;;;;;;;9.13;100.00;99985.69;5067463;28;20283;-82
2023/05/19 01:55:15;;;;;;;9.37;7.40;;;;;;;9.12;100.00;99985.88;5051028;28;20197;-81
2023/05/19 01:57:53;;;;;;;8.50;7.60;;;;;;;9.12;100.00;99994.72;5067358;28;20205;-81
2023/05/19 02:00:39;;;;;;;10.33;7.57;;;;;;;9.06;100.00;99986.66;5066064;28;20212;-82
2023/05/19 02:03:06;;;;;;;8.67;7.33;;;;;;;9.04;100.00;99989.56;5058880;28;20201;-79
2023/05/19 02:05:45;;;;;;;9.90;7.13;;;;;;;8.95;100.00;99987.28;5055677;28;20196;-79
2023/05/19 02:08:19;;;;;;;8.13;7.20;;;;;;;8.95;100.00;99987.28;5061770;28;20611;-79
2023/05/19 02:10:56;;;;;;;7.80;6.97;;;;;;;8.90;100.00;99987.88;5041618;28;20291;-79
2023/05/19 02:13:27;;;;;;;8.27;7.47;;;;;;;8.92;100.00;99984.97;5050485;28;20214;-79
2023/05/19 02:15:57;;;;;;;9.03;7.87;;;;;;;8.92;100.00;99984.97;5060009;28;20240;-79
2023/05/19 02:18:28;;;;;;;8.00;7.20;;;;;;;8.84;100.00;99988.66;5059598;28;20193;-79
2023/05/19 02:20:55;;;;;;;8.40;7.60;;;;;;;8.84;100.00;99981.47;5046414;28;20177;-79
2023/05/19 02:23:23;;;;;;;9.30;7.63;;;;;;;8.78;100.00;99976.91;5067569;28;20552;-79
2023/05/19 02:25:49;;;;;;;8.83;7.70;;;;;;;8.81;100.00;99975.72;5065848;28;20668;-79
2023/05/19 02:28:17;;;;;;;9.17;8.20;;;;;;;8.78;100.00;99976.91;5058960;28;20224;-78
2023/05/19 02:30:44;;;;;;;10.57;7.83;;;;;;;8.74;100.00;99970.34;5059890;28;20189;-79
2023/05/19 02:33:11;;;;;;;8.10;7.27;;;;;;;8.73;100.00;99976.69;5055511;28;20231;-79
2023/05/19 02:35:38;;;;;;;9.60;7.50;;;;;;;8.73;100.00;99971.34;5052946;28;20564;-80
2023/05/19 02:38:06;;;;;;;8.90;8.03;;;;;;;8.75;100.00;99966.63;5063864;28;20195;-79
2023/05/19 02:40:32;;;;;;;8.33;7.50;;;;;;;8.70;100.00;99969.09;5067368;28;20200;-79
2023/05/19 02:43:00;;;;;;;9.17;8.27;;;;;;;8.76;100.00;99968.28;5069321;28;20204;-79
2023/05/19 02:45:28;;;;;;;8.87;8.00;;;;;;;8.74;100.00;99966.84;5060176;28;20680;-79
2023/05/19 02:47:56;;;;;;;9.33;8.37;;;;;;;8.71;100.00;99972.59;5061506;28;20196;-79
2023/05/19 02:50:24;;;;;;;11.93;8.97;;;;;;;8.60;100.00;99957.94;5071370;28;20197;-79
2023/05/19 02:52:51;;;;;;;10.20;8.93;;;;;;;8.55;100.00;99963.06;5059440;28;20208;-80
2023/05/19 02:55:18;;;;;;;11.67;8.80;;;;;;;8.54;100.00;99963.28;5063079;28;20655;-79
2023/05/19 02:57:45;;;;;;;10.00;9.00;;;;;;;8.49;100.00;99965.72;5068564;28;20223;-79
2023/05/19 03:00:12;;;;;;;10.37;9.27;;;;;;;8.42;100.00;99967.50;5059671;28;20232;-79
2023/05/19 03:03:09;;;;;;;10.30;8.63;;;;;;;8.44;100.00;99974.31;5071162;28;20717;-85
2023/05/19 03:05:36;;;;;;;10.33;9.23;;;;;;;8.32;100.00;99974.03;5062795;28;20296;-79
2023/05/19 03:08:02;;;;;;;10.00;8.80;;;;;;;8.30;100.00;99976.09;5060097;28;20186;-80
2023/05/19 03:10:29;;;;;;;9.20;8.30;;;;;;;8.26;100.00;99977.44;5058670;28;20303;-80
2023/05/19 03:12:56;;;;;;;9.90;8.90;;;;;;;8.23;100.00;99974.34;5070179;28;20193;-80
2023/05/19 03:15:23;;;;;;;9.00;8.10;;;;;;;8.19;100.00;99984.59;5061888;28;20197;-79
2023/05/19 03:17:50;;;;;;;11.17;9.50;;;;;;;8.16;100.00;99978.81;5068061;28;20182;-80
2023/05/19 03:20:17;;;;;;;10.00;9.07;;;;;;;8.09;100.00;99981.44;5060070;28;20195;-80
2023/05/19 03:22:44;;;;;;;10.23;9.07;;;;;;;8.16;100.00;99981.50;5072156;28;20219;-79
2023/05/19 03:25:11;;;;;;;10.90;9.07;;;;;;;8.18;100.00;99980.28;5071693;28;20251;-80
2023/05/19 03:27:37;;;;;;;13.13;9.70;;;;;;;8.24;100.00;99979.50;5071165;28;20189;-79
2023/05/19 03:30:05;;;;;;;11.77;9.13;;;;;;;8.32;100.00;99981.22;5067712;28;20284;-80
2023/05/19 03:32:37;;;;;;;10.53;9.37;;;;;;;8.38;100.00;99989.25;5067349;28;20228;-80
2023/05/19 03:35:04;;;;;;;11.03;9.87;;;;;;;8.48;100.00;99986.25;5040520;28;20668;-79
2023/05/19 03:37:32;;;;;;;11.13;9.93;;;;;;;8.58;100.00;99977.88;5058260;28;20186;-79
2023/05/19 03:39:59;;;;;;;10.53;9.53;;;;;;;8.67;100.00;99990.88;5074338;28;20563;-80
2023/05/19 03:42:26;;;;;;;11.07;9.80;;;;;;;8.81;100.00;99989.06;5072534;28;20209;-79
2023/05/19 03:44:53;;;;;;;10.13;9.13;;;;;;;8.88;100.00;99989.06;5051003;28;20223;-79
2023/05/19 03:47:20;;;;;;;11.07;9.97;;;;;;;8.97;100.00;99990.56;5070355;28;20686;-80
2023/05/19 03:49:46;;;;;;;10.80;9.43;;;;;;;9.14;100.00;99998.03;5066595;28;20248;-80
2023/05/19 03:52:33;;;;;;;9.83;8.83;;;;;;;9.32;100.00;100000.13;5067724;28;20216;-79
2023/05/19 03:55:19;;;;;;;10.73;9.63;;;;;;;9.50;100.00;99999.53;5060538;28;20585;-79
2023/05/19 03:57:46;;;;;;;11.27;9.67;;;;;;;9.63;100.00;99997.69;5040039;28;20241;-80
2023/05/19 04:00:13;;;;;;;12.57;9.80;;;;;;;9.77;100.00;99997.72;5040327;28;20202;-79
2023/05/19 04:02:40;;;;;;;13.23;10.70;;;;;;;9.99;100.00;100001.81;5042550;28;20213;-79
2023/05/19 04:05:08;;;;;;;11.30;9.37;;;;;;;9.97;100.00;99996.69;5057233;28;20193;-80
2023/05/19 04:07:36;;;;;;;11.03;9.90;;;;;;;10.12;100.00;99994.59;5059933;28;20664;-79
2023/05/19 04:10:04;;;;;;;12.70;10.63;;;;;;;10.22;100.00;99999.56;5066921;28;20275;-80
2023/05/19 04:12:31;;;;;;;11.93;10.27;;;;;;;10.32;100.00;99999.97;5053620;28;20246;-80
2023/05/19 04:14:58;;;;;;;12.03;10.77;;;;;;;10.46;100.00;100009.63;5070076;28;20281;-80
2023/05/19 04:17:25;;;;;;;12.23;10.57;;;;;;;10.80;100.00;100008.50;5056644;28;20722;-80
2023/05/19 04:19:53;;;;;;;13.20;11.50;;;;;;;10.96;100.00;100008.00;5053132;28;20277;-79
2023/05/19 04:22:21;;;;;;;12.30;11.10;;;;;;;11.02;100.00;100001.78;5063139;28;20205;-79
2023/05/19 04:24:49;;;;;;;14.23;11.20;;;;;;;10.85;100.00;99997.97;5075552;28;20197;-80
2023/05/19 04:27:16;;;;;;;13.37;11.33;;;;;;;10.82;100.00;100006.44;5048717;28;20213;-80
2023/05/19 04:29:44;;;;;;;12.47;11.17;;;;;;;10.93;100.00;100002.25;5061020;28;20738;-79
2023/05/19 04:32:16;;;;;;;11.93;10.83;;;;;;;10.87;100.00;100008.47;5047423;28;20725;-79
2023/05/19 04:34:44;;;;;;;12.63;11.23;;;;;;;11.00;100.00;100008.41;5056265;28;20201;-79
2023/05/19 04:37:18;;;;;;;13.03;11.00;;;;;;;10.79;100.00;100006.84;5037152;28;20198;-80
2023/05/19 04:39:45;;;;;;;13.63;11.23;;;;;;;10.95;100.00;100009.06;5060191;28;20285;-79
2023/05/19 04:42:13;;;;;;;12.63;11.20;;;;;;;11.14;100.00;100014.53;5056009;28;20289;-80
2023/05/19 04:44:40;;;;;;;12.07;10.53;;;;;;;11.22;100.00;100009.75;5039521;28;20201;-80
2023/05/19 04:47:07;;;;;;;11.50;10.27;;;;;;;11.15;100.00;100000.91;5064185;28;20211;-80
2023/05/19 04:49:37;;;;;;;12.03;9.87;;;;;;;11.51;100.00;99996.78;5042580;28;20208;-79
2023/05/19 04:52:06;;;;;;;11.83;10.20;;;;;;;11.62;100.00;99998.78;5067123;28;20202;-79
2023/05/19 04:54:34;;;;;;;10.53;9.53;;;;;;;11.71;100.00;100002.84;5055008;28;20292;-80
2023/05/19 04:57:04;;;;;;;11.83;9.87;;;;;;;11.77;100.00;100005.50;5050520;28;20216;-79
2023/05/19 04:59:34;;;;;;;10.67;9.07;;;;;;;11.59;100.00;100002.72;5061275;28;20745;-82
2023/05/19 05:02:01;;;;;;;9.90;8.93;;;;;;;11.73;100.00;100009.66;5063182;28;20233;-80
2023/05/19 05:04:29;;;;;;;11.27;9.40;;;;;;;11.98;100.00;100015.06;5058267;28;20209;-80
2023/05/19 05:06:57;;;;;;;11.37;9.57;;;;;;;11.96;100.00;100014.44;5052994;28;20213;-80
2023/05/19 05:09:25;;;;;;;10.77;9.60;;;;;;;12.12;100.00;100008.53;5070378;28;20197;-79
2023/05/19 05:11:53;;;;;;;10.97;9.87;;;;;;;12.32;100.00;100011.00;5061332;28;20189;-80
2023/05/19 05:14:19;;;;;;;11.03;9.87;;;;;;;12.30;100.00;100005.88;5074348;28;20647;-80
2023/05/19 05:16:47;;;;;;;11.40;10.10;;;;;;;12.57;100.00;100006.41;5062219;28;20194;-80
2023/05/19 05:19:20;;;;;;;10.87;9.47;;;;;;;12.65;100.00;100010.66;5066915;28;20622;-80
2023/05/19 05:21:48;;;;;;;11.20;9.90;;;;;;;12.72;100.00;100008.75;5062450;28;20229;-80
2023/05/19 05:24:15;;;;;;;12.17;10.10;;;;;;;12.49;100.00;100011.28;5060395;28;20666;-79
2023/05/19 05:26:47;;;;;;;10.27;9.27;;;;;;;12.61;100.00;100013.00;5058786;28;20202;-80
2023/05/19 05:29:15;;;;;;;10.37;9.27;;;;;;;12.45;100.00;100007.38;5042484;28;20193;-80
2023/05/19 05:31:42;;;;;;;11.37;10.10;;;;;;;12.63;100.00;100007.41;5063087;28;20205;-79
2023/05/19 05:34:09;;;;;;;11.97;9.83;;;;;;;12.52;100.00;100013.50;5060249;28;20822;-79
2023/05/19 05:36:36;;;;;;;9.90;8.90;;;;;;;12.76;100.00;100012.63;5056733;28;20201;-80
2023/05/19 05:39:04;;;;;;;9.20;8.30;;;;;;;12.85;100.00;100008.59;5062478;28;20683;-79
2023/05/19 05:41:36;;;;;;;9.67;8.40;;;;;;;12.70;100.00;100008.97;5058527;28;20264;-80
2023/05/19 05:44:10;;;;;;;10.00;8.57;;;;;;;12.59;100.00;100011.59;5061110;28;20217;-79
2023/05/19 05:46:40;;;;;;;9.33;8.30;;;;;;;12.33;100.00;100010.78;5035984;28;20630;-80
2023/05/19 05:49:07;;;;;;;8.83;7.83;;;;;;;12.50;100.00;100012.91;5061717;28;20225;-79
2023/05/19 05:51:35;;;;;;;9.37;8.23;;;;;;;12.87;100.00;100017.25;5055101;28;20192;-80
2023/05/19 05:54:05;;;;;;;9.63;8.23;;;;;;;12.76;100.00;100013.44;5075500;28;20679;-80
2023/05/19 05:56:36;;;;;;;8.33;7.53;;;;;;;12.50;100.00;100010.22;5065285;28;20197;-81
2023/05/19 05:59:07;;;;;;;10.90;9.80;;;;;;;12.87;100.00;100013.75;5050101;28;20201;-80
2023/05/19 06:01:37;;;;;;;9.60;8.47;;;;;;;12.92;100.00;100011.22;5075059;28;20235;-80
2023/05/19 06:04:07;;;;;;;9.23;7.77;;;;;;;13.04;100.00;100018.28;5064955;28;20221;-80
2023/05/19 06:06:34;;;;;;;9.17;7.80;;;;;;;12.96;100.00;100015.09;5062420;28;20202;-80
2023/05/19 06:09:01;;;;;;;9.17;7.87;;;;;;;13.06;100.00;100013.50;5068634;28;20653;-80
2023/05/19 06:11:29;;;;;;;9.10;8.07;;;;;;;13.21;100.00;100010.44;5073513;28;20254;-81
2023/05/19 06:13:58;;;;;;;9.43;8.33;;;;;;;13.58;100.00;100019.22;5078069;28;20218;-81
2023/05/19 06:16:50;;;;;;;8.60;7.73;;;;;;;13.50;100.00;100009.63;5077277;28;20196;-80
2023/05/19 06:19:18;;;;;;;7.73;6.80;;;;;;;13.88;100.00;100019.19;5077498;28;20569;-80
2023/05/19 06:21:45;;;;;;;7.10;6.23;;;;;;;14.09;100.00;100019.44;5060250;28;20694;-80
2023/05/19 06:24:13;;;;;;;7.90;6.47;;;;;;;14.50;100.00;100029.34;5080189;28;20216;-80
2023/05/19 06:26:40;;;;;;;7.43;6.73;;;;;;;14.86;100.00;100033.63;5072229;28;20198;-80
2023/05/19 06:29:07;;;;;;;7.93;7.13;;;;;;;15.25;100.00;100025.78;5079616;28;20249;-80
2023/05/19 06:31:34;;;;;;;8.00;6.60;;;;;;;15.17;100.00;100029.69;5079293;28;20199;-80
2023/05/19 06:34:11;;;;;;;8.20;7.07;;;;;;;15.44;100.00;100025.34;5083461;28;20176;-79
2023/05/19 06:36:40;;;;;;;8.30;6.57;;;;;;;15.25;100.00;100023.91;5078207;28;20200;-80
2023/05/19 06:39:07;;;;;;;7.90;6.50;;;;;;;15.42;100.00;100021.25;5078483;28;20195;-80
2023/05/19 06:41:36;;;;;;;7.63;6.60;;;;;;;15.51;100.00;100024.41;5078425;28;20192;-80
2023/05/19 06:44:03;;;;;;;8.60;6.60;;;;;;;15.69;100.00;100025.03;5078796;28;20572;-80
2023/05/19 06:46:32;;;;;;;7.97;6.77;;;;;;;15.77;100.00;100026.53;5060879;28;20197;-80
2023/05/19 06:48:58;;;;;;;8.00;7.30;;;;;;;15.94;100.00;100032.75;5077227;28;20660;-80
2023/05/19 06:51:28;;;;;;;8.77;7.10;;;;;;;15.96;100.00;100027.91;5078326;28;20197;-81
2023/05/19 06:53:55;;;;;;;7.43;6.23;;;;;;;16.02;100.00;100028.81;5079865;28;20193;-80
2023/05/19 06:56:22;;;;;;;8.23;6.37;;;;;;;16.08;100.00;100038.66;5078766;28;20199;-80
2023/05/19 06:58:50;;;;;;;7.27;6.57;;;;;;;16.11;100.00;100038.16;5078976;28;20219;-80
2023/05/19 07:01:19;;;;;;;7.40;6.70;;;;;;;16.17;100.00;100042.59;5078715;28;20229;-79
2023/05/19 07:03:52;;;;;;;6.67;5.97;;;;;;;16.35;100.00;100030.69;5080016;28;20217;-79
2023/05/19 07:06:19;;;;;;;8.00;6.77;;;;;;;16.56;100.00;100046.16;5076157;28;20250;-79
2023/05/19 07:08:46;;;;;;;7.20;6.50;;;;;;;16.67;100.00;100034.44;5075731;28;20213;-80
2023/05/19 07:11:14;;;;;;;7.80;7.00;;;;;;;16.81;100.00;100040.31;5075516;28;20650;-80
2023/05/19 07:13:41;;;;;;;7.73;6.63;;;;;;;16.76;100.00;100034.81;5076241;28;20280;-79
2023/05/19 07:16:09;;;;;;;7.07;6.37;;;;;;;16.84;100.00;100042.53;5076282;28;20204;-80
2023/05/19 07:18:35;;;;;;;7.17;6.50;;;;;;;16.95;100.00;100039.69;5075340;28;20275;-79
2023/05/19 07:21:02;;;;;;;7.00;6.30;;;;;;;16.69;100.00;100043.97;5075165;28;20197;-79
2023/05/19 07:23:30;;;;;;;8.43;6.93;;;;;;;15.97;100.00;100032.25;5075376;28;20212;-79
2023/05/19 07:25:56;;;;;;;7.67;6.83;;;;;;;16.31;100.00;100033.06;5075030;28;20197;-79
2023/05/19 07:28:23;;;;;;;8.23;6.87;;;;;;;16.42;100.00;100034.88;5076268;28;20272;-79
2023/05/19 07:30:50;;;;;;;7.23;6.57;;;;;;;16.78;100.00;100035.41;5077235;28;20215;-80
2023/05/19 07:33:17;;;;;;;7.93;7.13;;;;;;;15.89;100.00;100026.44;5076496;28;20698;-79
2023/05/19 07:35:45;;;;;;;8.47;6.40;;;;;;;16.11;100.00;100027.34;5058574;28;20197;-79
2023/05/19 07:38:11;;;;;;;7.30;6.60;;;;;;;16.22;100.00;100026.44;5076576;28;20212;-79
2023/05/19 07:40:38;;;;;;;7.87;6.63;;;;;;;16.56;100.00;100029.94;5078285;28;20271;-80
2023/05/19 07:43:05;;;;;;;8.00;7.17;;;;;;;16.95;100.00;100026.16;5075595;28;20216;-80
2023/05/19 07:45:33;;;;;;;8.57;6.93;;;;;;;17.23;100.00;100032.44;5077033;28;20189;-80
2023/05/19 07:47:59;;;;;;;8.10;6.77;;;;;;;17.52;100.00;100025.75;5075180;28;20185;-79
2023/05/19 07:50:26;;;;;;;7.77;6.37;;;;;;;17.85;100.00;100022.03;5077150;28;20182;-79
2023/05/19 07:52:55;;;;;;;7.10;6.33;;;;;;;18.01;100.00;100013.75;5076668;28;20189;-80
2023/05/19 07:55:22;;;;;;;7.23;6.57;;;;;;;18.52;100.00;100024.16;5076629;28;20541;-79
2023/05/19 07:57:49;;;;;;;7.40;6.70;;;;;;;18.32;100.00;100020.25;5074618;28;20197;-79
2023/05/19 08:00:16;;;;;;;7.40;6.70;;;;;;;17.55;100.00;100022.50;5075866;28;20192;-79
2023/05/19 08:02:43;;;;;;;10.90;9.73;;;;;;;17.80;100.00;100022.78;5075914;28;20181;-80
2023/05/19 08:05:10;;;;;;;8.17;7.37;;;;;;;18.47;100.00;100011.38;5074426;28;20185;-79
2023/05/19 08:07:37;;;;;;;7.43;6.53;;;;;;;17.46;100.00;100014.03;5075897;28;20181;-81
2023/05/19 08:10:04;;;;;;;6.13;5.53;;;;;;;18.30;100.00;100021.56;5075252;28;20219;-80
2023/05/19 08:12:31;;;;;;;7.60;5.40;;;;;;;17.07;100.00;100026.06;5075712;28;20208;-79
2023/05/19 08:14:57;;;;;;;6.03;5.40;;;;;;;17.26;100.00;100027.38;5075416;28;20605;-80
2023/05/19 08:17:27;;;;;;;6.20;5.53;;;;;;;18.16;100.00;100033.94;5075362;28;20182;-79
2023/05/19 08:19:54;;;;;;;5.50;5.00;;;;;;;18.28;100.00;100032.69;5075642;28;20528;-79
2023/05/19 08:22:20;;;;;;;7.00;6.20;;;;;;;19.24;96.74;100027.78;5075172;28;20204;-80
2023/05/19 08:24:48;;;;;;;5.27;4.87;;;;;;;19.04;98.42;100025.00;5075251;28;20236;-79
2023/05/19 08:27:15;;;;;;;5.07;4.57;;;;;;;19.78;95.11;100032.84;5073488;28;20268;-79
2023/05/19 08:29:42;;;;;;;5.30;4.80;;;;;;;19.88;91.69;100032.03;5074607;28;20185;-78
2023/05/19 08:32:08;;;;;;;6.13;4.77;;;;;;;19.70;91.48;100019.78;5068123;28;20241;-80
2023/05/19 08:34:38;;;;;;;6.93;5.07;;;;;;;20.21;89.40;100024.16;5052677;28;20210;-79
2023/05/19 08:37:05;;;;;;;5.97;5.43;;;;;;;20.60;87.89;100021.69;5052634;28;20190;-78
2023/05/19 08:39:33;;;;;;;6.27;5.60;;;;;;;20.97;87.71;100020.47;5055230;28;20194;-77
2023/05/19 08:42:01;;;;;;;6.30;5.70;;;;;;;21.41;85.91;100017.84;5059530;28;20291;-78
2023/05/19 08:44:29;;;;;;;5.67;4.90;;;;;;;21.64;84.24;100014.44;5047919;28;20224;-77
2023/05/19 08:47:01;;;;;;;6.50;5.80;;;;;;;20.86;84.35;100016.97;5040135;28;20196;-77
2023/05/19 08:49:34;;;;;;;6.23;5.50;;;;;;;21.74;81.71;100010.84;5053398;28;20219;-77
2023/05/19 08:52:16;;;;;;;7.03;5.93;;;;;;;21.74;81.01;100005.38;5046957;28;20196;-77
2023/05/19 08:54:49;;;;;;;6.20;5.60;;;;;;;21.01;82.16;100007.91;5042150;28;20191;-78
2023/05/19 08:57:16;;;;;;;5.03;4.63;;;;;;;21.64;81.30;100008.97;5048001;28;20195;-78
2023/05/19 08:59:43;;;;;;;5.60;5.00;;;;;;;21.84;78.33;99999.81;5040478;28;20677;-76
2023/05/19 09:02:12;;;;;;;6.07;4.90;;;;;;;21.87;76.72;99999.28;5038116;28;20230;-78
2023/05/19 09:04:39;;;;;;;5.67;5.17;;;;;;;21.81;76.97;99997.66;5042461;28;20271;-78
2023/05/19 09:07:05;;;;;;;6.03;4.97;;;;;;;22.27;75.77;99996.22;5039699;28;20192;-78
2023/05/19 09:09:32;;;;;;;6.77;5.77;;;;;;;20.80;76.60;99999.03;5041060;28;20273;-77
2023/05/19 09:11:59;;;;;;;6.43;5.83;;;;;;;20.54;81.11;99998.28;5052964;28;20212;-77
2023/05/19 09:14:26;;;;;;;5.47;4.97;;;;;;;20.84;79.69;100002.81;5055497;28;20607;-78
2023/05/19 09:16:52;;;;;;;6.57;5.67;;;;;;;20.21;81.21;99994.22;5056067;28;20627;-77
2023/05/19 09:19:20;;;;;;;6.17;5.60;;;;;;;19.39;82.74;100002.56;5057206;28;20301;-77
2023/05/19 09:21:58;;;;;;;6.30;5.70;;;;;;;19.00;85.03;99995.91;5053873;28;20242;-77
2023/05/19 09:24:25;;;;;;;8.40;7.43;;;;;;;20.05;84.16;100003.50;5050270;28;20761;-78
2023/05/19 09:26:55;;;;;;;6.10;5.50;;;;;;;20.96;82.30;99995.13;5052330;28;20655;-78
2023/05/19 09:29:25;;;;;;;6.50;5.73;;;;;;;21.14;82.56;99993.72;5052715;28;20225;-78
2023/05/19 09:31:54;;;;;;;5.40;4.90;;;;;;;21.48;81.58;99991.91;5050499;28;20779;-76
2023/05/19 09:34:23;;;;;;;5.80;4.90;;;;;;;21.96;78.68;99983.94;5052258;28;20203;-76
2023/05/19 09:36:52;;;;;;;5.97;5.20;;;;;;;21.68;78.04;99971.88;5055393;28;20205;-77
2023/05/19 09:39:24;;;;;;;5.10;4.70;;;;;;;21.56;78.35;99967.88;5054553;28;20270;-77
2023/05/19 09:41:52;;;;;;;5.50;5.00;;;;;;;21.45;79.23;99973.41;5050940;28;20605;-78
2023/05/19 09:44:19;;;;;;;4.50;4.10;;;;;;;21.19;81.34;99968.34;5050477;28;20221;-77
2023/05/19 09:46:49;;;;;;;5.27;4.77;;;;;;;21.14;82.35;99974.66;5048598;28;20220;-77
2023/05/19 09:49:24;;;;;;;6.00;5.10;;;;;;;19.79;85.16;99961.06;5054190;28;20881;-77
2023/05/19 09:51:55;;;;;;;5.57;5.07;;;;;;;20.23;84.63;99959.41;5046885;28;20196;-77
2023/05/19 09:54:23;;;;;;;4.47;4.07;;;;;;;20.62;85.72;99956.09;5043544;28;20197;-77
2023/05/19 09:57:00;;;;;;;5.77;4.87;;;;;;;21.19;84.04;99958.28;5048055;28;20192;-78
2023/05/19 09:59:28;;;;;;;4.93;4.43;;;;;;;21.83;85.41;99957.31;5047875;28;20279;-77
2023/05/19 10:02:00;;;;;;;6.07;5.57;;;;;;;22.00;83.81;99955.00;5045476;28;20232;-77
2023/05/19 10:04:28;;;;;;;5.30;4.50;;;;;;;22.43;82.48;99961.41;5047718;28;20467;-77
2023/05/19 10:06:58;;;;;;;5.73;4.80;;;;;;;21.92;80.49;99956.41;5047027;28;20644;-79
2023/05/19 10:09:29;;;;;;;5.43;4.93;;;;;;;22.18;79.59;99946.09;5046170;28;20192;-78
2023/05/19 10:11:57;;;;;;;6.10;5.30;;;;;;;21.94;79.03;99956.13;5041309;28;20243;-78
2023/05/19 10:14:26;;;;;;;5.57;5.00;;;;;;;21.62;79.29;99951.19;5036155;28;20281;-78
2023/05/19 10:16:54;;;;;;;5.87;4.60;;;;;;;21.64;80.41;99951.72;5037108;28;20190;-78
2023/05/19 10:19:23;;;;;;;5.87;4.63;;;;;;;21.42;81.33;99948.59;5044247;28;20203;-78
2023/05/19 10:21:50;;;;;;;5.50;5.00;;;;;;;21.04;79.92;99950.97;5048071;28;20195;-78
2023/05/19 10:24:17;;;;;;;5.13;4.60;;;;;;;21.06;81.03;99939.81;5044256;28;20266;-78
2023/05/19 10:26:46;;;;;;;6.00;5.50;;;;;;;20.17;85.91;99944.19;5041810;28;20307;-78
2023/05/19 10:29:16;;;;;;;5.60;5.10;;;;;;;20.42;88.14;99934.38;5041722;28;20244;-79
2023/05/19 10:31:44;;;;;;;5.63;5.13;;;;;;;20.66;87.20;99940.81;5036419;28;20194;-77
2023/05/19 10:34:41;;;;;;;6.93;4.80;;;;;;;20.53;87.91;99934.03;5055657;28;20287;-79
2023/05/19 10:37:30;;;;;;;7.00;5.27;;;;;;;21.17;86.05;99933.25;5037895;28;20665;-78
2023/05/19 10:39:57;;;;;;;6.10;5.50;;;;;;;21.36;86.29;99934.22;5044774;28;20197;-77
2023/05/19 10:42:40;;;;;;;6.60;6.00;;;;;;;21.27;88.31;99932.38;5045486;28;20226;-77
2023/05/19 10:45:17;;;;;;;5.87;5.37;;;;;;;22.08;86.00;99931.72;5044472;28;20243;-80
2023/05/19 10:47:44;;;;;;;6.20;5.60;;;;;;;22.59;84.42;99921.88;5067179;28;20611;-79
2023/05/19 10:50:11;;;;;;;5.77;4.60;;;;;;;22.54;85.68;99930.13;5059343;28;20704;-79
2023/05/19 10:52:39;;;;;;;6.00;5.40;;;;;;;22.92;83.78;99925.59;5059067;28;20196;-79
2023/05/19 10:55:14;;;;;;;4.93;4.53;;;;;;;23.44;82.08;99926.47;5063642;28;20720;-81
2023/05/19 10:57:53;;;;;;;6.07;5.53;;;;;;;23.69;80.32;99926.94;5053514;28;20189;-79
2023/05/19 11:00:26;;;;;;;6.00;5.32;;;;;;;24.04;79.61;99922.75;5065548;28;20684;-79
2023/05/19 11:02:56;;;;;;;5.40;4.97;;;;;;;23.87;80.04;99925.25;5056649;28;20200;-79
2023/05/19 11:05:29;;;;;;;5.72;5.22;;;;;;;22.52;81.91;99910.50;5049732;28;20660;-79
2023/05/19 11:08:04;;;;;;;6.05;5.45;;;;;;;22.37;84.96;99916.97;5052186;28;20197;-80
2023/05/19 11:10:31;;;;;;;6.22;5.10;;;;;;;23.29;83.51;99916.59;5058640;28;20240;-79
2023/05/19 11:12:58;;;;;;;5.50;5.00;;;;;;;23.55;81.36;99914.31;5052807;28;20264;-79
2023/05/19 11:15:26;;;;;;;6.35;4.85;;;;;;;23.26;81.82;99909.00;5058128;28;20603;-79
2023/05/19 11:17:53;;;;;;;5.00;4.60;;;;;;;23.16;81.26;99900.94;5042377;28;20248;-79
2023/05/19 11:20:24;;;;;;;5.07;4.60;;;;;;;22.31;81.25;99895.44;5045491;28;20595;-79
2023/05/19 11:23:07;;;;;;;6.20;4.93;;;;;;;22.29;84.22;99903.13;5041963;28;20562;-79
2023/05/19 11:25:41;;;;;;;4.95;4.55;;;;;;;22.92;80.68;99902.91;5043260;28;20224;-80
2023/05/19 11:28:11;;;;;;;6.40;4.55;;;;;;;22.85;82.74;99905.22;5045300;28;20200;-79
2023/05/19 11:30:41;;;;;;;5.00;4.23;;;;;;;22.67;84.04;99898.59;5049606;28;20221;-79